Ana Sayfa
METAR-TAF:

METAR-TAF

Havaalanları :

La Grande/Union County Airport

La Grande, Oregon, Amerika Birleşik Devletleri

Enlem: 45-17N, Boylam: 118-00W, yükseklik: 827 m

Güncel hava durumu gözlemi

Rapor saat 11:56 UTC de 34 dakika önce yapıldı.
Rüzgar güneydan 3 kt
Sıcaklık 8°C
Nem 87%
Basınç 1015 hPa
Görüş mesafesi: 16.1 km
Açık gökyüzü

METAR: KLGD 161156Z AUTO 18003KT 10SM CLR 08/06 A2998 RMK AO2 SLP287 T00830061 10167 20083 53005

Saat: 05:30 (12:30 UTC)


TAF: eksik

4.000'den fazla havaalanı için hava durumu gözlemleri ve tahminleri (METAR ve TAF raporları).

Kullanılabilir istasyonlar harita üzerinde sarı ve kırmızı noktalarla gösterilir.

İstasyonun adını görmek için fareyi noktanın üzerinde gezdirin.

Sonrasında hava gözlem ve tahminlerini görmek için tıklayın.

Haritayı değiştirmek için: yaklaştırmak için siyah artı işaretli yeşil düğmeye ve uzaklaştırmak için de eksi işaretli düğmeye hızla tıklayın; bitişik haritalar için yeşil okları kullanın.


METAR-TAF: